Redford, Texas
Current Conditions -  °F | °C
As of 9:15 PM on Saturday 22 Nov 2014 (Local Time) from KPRS Reporting Station
Clear Clear  
Wind Chill: 58°   Ceiling: Unl
Heat Index: 58°   Visibility: 10mi
Dew Point: 38°   Wind: 8mph
Humidity: 47%   Direction: 320°NW
Pressure: 29.92"   Gusts: NA
Location:  29.45°N, 104.19°W
Report Text: KPRS 230315Z AUTO 32007KT 10SM CLR 15/03 A2992 RMK AO2 T01450032
Loading
Personal Weather Stations






























Interactive Weather Map New forecast layout! Learn more

10-Day Weather Forecast

Advertisements
Track Severe Weather on mobile